Terminal Aerodrome Forecast
Issued by NWS Louisville, KY

Home | Current Version | Previous Version | Text Only | Print | Product List | Glossary On
Versions: 1 2 3 4 5 6 7 8 9 10 11 12
000
FTUS43 KLMK 271120
TAFBWG
TAF
KBWG 271120Z 2712/2812 VRB04KT P6SM SCT035
     FM272000 VRB05KT P6SM VCTS BKN035CB
     FM272300 VRB05KT P6SM FEW035=

USA.gov is the U.S. government's official web portal to all federal, state and local government web resources and services.